sensor_id;sensor_type;location;lat;lon;timestamp;temperature;humidity
770;DHT22;368;48.698;9.116;2023-06-14T00:02:00;12.20;90.40
770;DHT22;368;48.698;9.116;2023-06-14T00:04:27;12.30;89.20
770;DHT22;368;48.698;9.116;2023-06-14T00:06:55;12.40;87.10
770;DHT22;368;48.698;9.116;2023-06-14T00:09:22;12.50;87.00
770;DHT22;368;48.698;9.116;2023-06-14T00:11:50;12.20;89.10
770;DHT22;368;48.698;9.116;2023-06-14T00:14:17;12.60;90.50
770;DHT22;368;48.698;9.116;2023-06-14T00:16:43;12.20;90.60
770;DHT22;368;48.698;9.116;2023-06-14T00:19:10;12.20;91.30
770;DHT22;368;48.698;9.116;2023-06-14T00:21:37;12.10;91.90
770;DHT22;368;48.698;9.116;2023-06-14T00:24:05;12.30;92.00
770;DHT22;368;48.698;9.116;2023-06-14T00:26:31;11.90;91.70
770;DHT22;368;48.698;9.116;2023-06-14T00:29:00;12.10;92.20
770;DHT22;368;48.698;9.116;2023-06-14T00:31:26;12.00;92.80
770;DHT22;368;48.698;9.116;2023-06-14T00:33:53;12.10;92.40
770;DHT22;368;48.698;9.116;2023-06-14T00:36:20;11.90;92.20
770;DHT22;368;48.698;9.116;2023-06-14T00:38:47;12.00;92.60
770;DHT22;368;48.698;9.116;2023-06-14T00:41:13;11.90;92.50
770;DHT22;368;48.698;9.116;2023-06-14T00:43:40;11.90;92.20
770;DHT22;368;48.698;9.116;2023-06-14T00:46:09;11.90;92.60
770;DHT22;368;48.698;9.116;2023-06-14T00:48:36;11.80;92.80
770;DHT22;368;48.698;9.116;2023-06-14T00:51:04;11.40;93.10
770;DHT22;368;48.698;9.116;2023-06-14T00:53:31;11.50;93.20
770;DHT22;368;48.698;9.116;2023-06-14T00:56:00;11.40;93.50
770;DHT22;368;48.698;9.116;2023-06-14T00:58:27;11.40;93.80
770;DHT22;368;48.698;9.116;2023-06-14T01:00:55;11.30;94.00
770;DHT22;368;48.698;9.116;2023-06-14T01:03:24;11.30;94.70
770;DHT22;368;48.698;9.116;2023-06-14T01:05:59;11.20;94.90
770;DHT22;368;48.698;9.116;2023-06-14T01:08:37;11.20;95.10
770;DHT22;368;48.698;9.116;2023-06-14T01:11:12;11.20;95.00
770;DHT22;368;48.698;9.116;2023-06-14T01:13:45;11.10;95.30
770;DHT22;368;48.698;9.116;2023-06-14T01:16:13;10.90;95.20
770;DHT22;368;48.698;9.116;2023-06-14T01:18:43;11.00;95.30
770;DHT22;368;48.698;9.116;2023-06-14T01:21:20;11.20;95.30
770;DHT22;368;48.698;9.116;2023-06-14T01:23:49;10.80;95.10
770;DHT22;368;48.698;9.116;2023-06-14T01:26:19;11.10;95.70
770;DHT22;368;48.698;9.116;2023-06-14T01:28:46;10.80;96.00
770;DHT22;368;48.698;9.116;2023-06-14T01:31:18;11.20;96.00
770;DHT22;368;48.698;9.116;2023-06-14T01:33:48;10.90;96.50
770;DHT22;368;48.698;9.116;2023-06-14T01:36:16;10.90;96.80
770;DHT22;368;48.698;9.116;2023-06-14T01:38:44;10.70;96.70
770;DHT22;368;48.698;9.116;2023-06-14T01:41:13;10.90;96.80
770;DHT22;368;48.698;9.116;2023-06-14T01:43:41;10.80;97.00
770;DHT22;368;48.698;9.116;2023-06-14T01:46:09;10.90;97.10
770;DHT22;368;48.698;9.116;2023-06-14T01:48:37;10.70;97.10
770;DHT22;368;48.698;9.116;2023-06-14T01:51:04;10.90;97.40
770;DHT22;368;48.698;9.116;2023-06-14T01:53:31;10.60;97.80
770;DHT22;368;48.698;9.116;2023-06-14T01:55:59;10.80;98.00
770;DHT22;368;48.698;9.116;2023-06-14T01:58:28;10.50;97.90
770;DHT22;368;48.698;9.116;2023-06-14T02:00:55;10.60;97.90
770;DHT22;368;48.698;9.116;2023-06-14T02:03:22;10.50;98.20
770;DHT22;368;48.698;9.116;2023-06-14T02:05:50;10.50;98.00
770;DHT22;368;48.698;9.116;2023-06-14T02:08:17;10.70;97.90
770;DHT22;368;48.698;9.116;2023-06-14T02:10:44;10.70;97.60
770;DHT22;368;48.698;9.116;2023-06-14T02:13:11;10.50;97.00
770;DHT22;368;48.698;9.116;2023-06-14T02:15:39;10.70;97.00
770;DHT22;368;48.698;9.116;2023-06-14T02:18:09;10.70;97.20
770;DHT22;368;48.698;9.116;2023-06-14T02:20:37;10.70;97.20
770;DHT22;368;48.698;9.116;2023-06-14T02:23:04;10.60;97.30
770;DHT22;368;48.698;9.116;2023-06-14T02:25:31;11.00;97.50
770;DHT22;368;48.698;9.116;2023-06-14T02:27:58;10.90;97.40
770;DHT22;368;48.698;9.116;2023-06-14T02:30:25;11.10;98.00
770;DHT22;368;48.698;9.116;2023-06-14T02:32:53;11.10;97.80
770;DHT22;368;48.698;9.116;2023-06-14T02:35:20;11.10;97.50
770;DHT22;368;48.698;9.116;2023-06-14T02:37:50;11.00;97.10
770;DHT22;368;48.698;9.116;2023-06-14T02:40:18;11.00;97.00
770;DHT22;368;48.698;9.116;2023-06-14T02:42:44;10.90;96.90
770;DHT22;368;48.698;9.116;2023-06-14T02:45:11;10.50;97.20
770;DHT22;368;48.698;9.116;2023-06-14T02:47:38;10.30;97.60
770;DHT22;368;48.698;9.116;2023-06-14T02:50:08;10.60;98.00
770;DHT22;368;48.698;9.116;2023-06-14T02:52:35;10.60;98.20
770;DHT22;368;48.698;9.116;2023-06-14T02:55:02;10.30;98.20
770;DHT22;368;48.698;9.116;2023-06-14T02:57:28;10.40;98.60
770;DHT22;368;48.698;9.116;2023-06-14T02:59:55;10.30;98.90
770;DHT22;368;48.698;9.116;2023-06-14T03:02:22;10.10;98.80
770;DHT22;368;48.698;9.116;2023-06-14T03:04:49;10.00;98.80
770;DHT22;368;48.698;9.116;2023-06-14T03:07:17;9.90;99.40
770;DHT22;368;48.698;9.116;2023-06-14T03:09:45;10.00;99.00
770;DHT22;368;48.698;9.116;2023-06-14T03:12:12;9.90;99.70
770;DHT22;368;48.698;9.116;2023-06-14T03:14:40;9.90;99.90
770;DHT22;368;48.698;9.116;2023-06-14T03:17:07;10.00;99.30
770;DHT22;368;48.698;9.116;2023-06-14T03:19:35;10.10;99.50
770;DHT22;368;48.698;9.116;2023-06-14T03:22:02;10.10;99.60
770;DHT22;368;48.698;9.116;2023-06-14T03:24:30;10.20;99.30
770;DHT22;368;48.698;9.116;2023-06-14T03:27:02;10.30;99.30
770;DHT22;368;48.698;9.116;2023-06-14T03:29:29;10.30;98.90
770;DHT22;368;48.698;9.116;2023-06-14T03:32:00;10.20;98.90
770;DHT22;368;48.698;9.116;2023-06-14T03:34:27;10.10;98.90
770;DHT22;368;48.698;9.116;2023-06-14T03:36:53;10.30;99.00
770;DHT22;368;48.698;9.116;2023-06-14T03:39:21;10.00;99.00
770;DHT22;368;48.698;9.116;2023-06-14T03:41:49;10.50;98.90
770;DHT22;368;48.698;9.116;2023-06-14T03:44:16;10.70;98.50
770;DHT22;368;48.698;9.116;2023-06-14T03:46:44;10.70;98.40
770;DHT22;368;48.698;9.116;2023-06-14T03:49:11;10.80;98.20
770;DHT22;368;48.698;9.116;2023-06-14T03:51:38;10.90;98.20
770;DHT22;368;48.698;9.116;2023-06-14T03:54:06;10.70;98.10
770;DHT22;368;48.698;9.116;2023-06-14T03:56:33;10.90;98.30
770;DHT22;368;48.698;9.116;2023-06-14T03:59:01;10.60;98.30
770;DHT22;368;48.698;9.116;2023-06-14T04:01:28;10.70;98.30
770;DHT22;368;48.698;9.116;2023-06-14T04:03:55;10.60;98.40
770;DHT22;368;48.698;9.116;2023-06-14T04:06:23;10.70;98.60
770;DHT22;368;48.698;9.116;2023-06-14T04:08:57;10.80;98.30
770;DHT22;368;48.698;9.116;2023-06-14T04:11:29;10.90;98.20
770;DHT22;368;48.698;9.116;2023-06-14T04:13:56;11.00;98.00
770;DHT22;368;48.698;9.116;2023-06-14T04:16:24;11.30;97.80
770;DHT22;368;48.698;9.116;2023-06-14T04:18:51;11.20;96.60
770;DHT22;368;48.698;9.116;2023-06-14T04:21:18;12.10;95.40
770;DHT22;368;48.698;9.116;2023-06-14T04:23:45;12.60;94.40
770;DHT22;368;48.698;9.116;2023-06-14T04:26:12;12.80;93.10
770;DHT22;368;48.698;9.116;2023-06-14T04:28:40;13.10;92.50
770;DHT22;368;48.698;9.116;2023-06-14T04:31:07;13.20;92.20
770;DHT22;368;48.698;9.116;2023-06-14T04:33:36;13.50;91.90
770;DHT22;368;48.698;9.116;2023-06-14T04:36:09;13.60;91.30
770;DHT22;368;48.698;9.116;2023-06-14T04:38:37;13.70;91.00
770;DHT22;368;48.698;9.116;2023-06-14T04:41:03;13.70;90.90
770;DHT22;368;48.698;9.116;2023-06-14T04:43:31;14.00;90.60
770;DHT22;368;48.698;9.116;2023-06-14T04:46:03;13.90;90.40
770;DHT22;368;48.698;9.116;2023-06-14T04:48:31;14.00;90.40
770;DHT22;368;48.698;9.116;2023-06-14T04:50:59;14.00;90.40
770;DHT22;368;48.698;9.116;2023-06-14T04:53:26;14.30;90.20
770;DHT22;368;48.698;9.116;2023-06-14T04:55:54;14.10;89.60
770;DHT22;368;48.698;9.116;2023-06-14T04:58:21;14.40;89.20
770;DHT22;368;48.698;9.116;2023-06-14T05:00:48;14.50;86.80
770;DHT22;368;48.698;9.116;2023-06-14T05:03:14;14.60;87.40
770;DHT22;368;48.698;9.116;2023-06-14T05:05:43;14.80;85.80
770;DHT22;368;48.698;9.116;2023-06-14T05:08:12;14.80;86.60
770;DHT22;368;48.698;9.116;2023-06-14T05:10:39;14.80;86.40
770;DHT22;368;48.698;9.116;2023-06-14T05:13:05;14.80;87.00
770;DHT22;368;48.698;9.116;2023-06-14T05:15:32;14.90;87.60
770;DHT22;368;48.698;9.116;2023-06-14T05:17:59;14.90;88.00
770;DHT22;368;48.698;9.116;2023-06-14T05:20:26;15.00;88.30
770;DHT22;368;48.698;9.116;2023-06-14T05:22:54;15.20;88.00
770;DHT22;368;48.698;9.116;2023-06-14T05:25:23;15.30;88.30
770;DHT22;368;48.698;9.116;2023-06-14T05:27:50;15.50;87.10
770;DHT22;368;48.698;9.116;2023-06-14T05:30:17;15.70;85.50
770;DHT22;368;48.698;9.116;2023-06-14T05:32:44;16.00;84.50
770;DHT22;368;48.698;9.116;2023-06-14T05:35:11;16.10;83.50
770;DHT22;368;48.698;9.116;2023-06-14T05:37:38;16.40;81.80
770;DHT22;368;48.698;9.116;2023-06-14T05:40:05;16.40;81.50
770;DHT22;368;48.698;9.116;2023-06-14T05:42:34;16.50;81.30
770;DHT22;368;48.698;9.116;2023-06-14T05:45:01;16.80;80.80
770;DHT22;368;48.698;9.116;2023-06-14T05:47:27;17.00;80.50
770;DHT22;368;48.698;9.116;2023-06-14T05:49:54;17.20;79.60
770;DHT22;368;48.698;9.116;2023-06-14T05:52:21;16.80;79.30
770;DHT22;368;48.698;9.116;2023-06-14T05:54:48;17.00;80.00
770;DHT22;368;48.698;9.116;2023-06-14T05:57:15;17.30;79.60
770;DHT22;368;48.698;9.116;2023-06-14T05:59:43;17.40;79.10
770;DHT22;368;48.698;9.116;2023-06-14T06:02:10;17.60;79.00
770;DHT22;368;48.698;9.116;2023-06-14T06:04:37;18.20;76.50
770;DHT22;368;48.698;9.116;2023-06-14T06:07:04;18.30;75.60
770;DHT22;368;48.698;9.116;2023-06-14T06:09:31;18.60;74.70
770;DHT22;368;48.698;9.116;2023-06-14T06:11:58;18.80;73.90
770;DHT22;368;48.698;9.116;2023-06-14T06:14:24;18.80;73.40
770;DHT22;368;48.698;9.116;2023-06-14T06:16:53;18.90;73.80
770;DHT22;368;48.698;9.116;2023-06-14T06:19:20;19.40;73.70
770;DHT22;368;48.698;9.116;2023-06-14T06:21:47;19.90;72.50
770;DHT22;368;48.698;9.116;2023-06-14T06:24:14;19.80;69.80
770;DHT22;368;48.698;9.116;2023-06-14T06:26:40;19.40;70.00
770;DHT22;368;48.698;9.116;2023-06-14T06:29:07;19.40;70.40
770;DHT22;368;48.698;9.116;2023-06-14T06:31:34;19.80;70.10
770;DHT22;368;48.698;9.116;2023-06-14T06:34:02;20.20;69.10
770;DHT22;368;48.698;9.116;2023-06-14T06:36:29;20.50;68.80
770;DHT22;368;48.698;9.116;2023-06-14T06:38:56;20.80;68.20
770;DHT22;368;48.698;9.116;2023-06-14T06:41:22;21.30;67.70
770;DHT22;368;48.698;9.116;2023-06-14T06:43:49;21.60;65.00
770;DHT22;368;48.698;9.116;2023-06-14T06:46:16;21.50;64.90
770;DHT22;368;48.698;9.116;2023-06-14T06:48:44;21.80;65.50
770;DHT22;368;48.698;9.116;2023-06-14T06:51:12;21.30;65.10
770;DHT22;368;48.698;9.116;2023-06-14T06:53:41;20.70;66.50
770;DHT22;368;48.698;9.116;2023-06-14T06:56:08;21.10;64.70
770;DHT22;368;48.698;9.116;2023-06-14T06:58:35;21.80;65.00
770;DHT22;368;48.698;9.116;2023-06-14T07:01:02;22.00;65.50
770;DHT22;368;48.698;9.116;2023-06-14T07:03:28;22.30;64.90
770;DHT22;368;48.698;9.116;2023-06-14T07:05:55;22.30;61.70
770;DHT22;368;48.698;9.116;2023-06-14T07:08:23;21.90;62.40
770;DHT22;368;48.698;9.116;2023-06-14T07:10:50;22.80;60.30
770;DHT22;368;48.698;9.116;2023-06-14T07:13:17;23.20;60.60
770;DHT22;368;48.698;9.116;2023-06-14T07:15:44;23.90;58.70
770;DHT22;368;48.698;9.116;2023-06-14T07:18:11;23.30;58.10
770;DHT22;368;48.698;9.116;2023-06-14T07:20:38;22.90;60.10
770;DHT22;368;48.698;9.116;2023-06-14T07:23:05;23.00;58.50
770;DHT22;368;48.698;9.116;2023-06-14T07:25:34;23.20;55.80
770;DHT22;368;48.698;9.116;2023-06-14T07:28:01;23.50;56.40
770;DHT22;368;48.698;9.116;2023-06-14T07:30:27;23.60;57.20
770;DHT22;368;48.698;9.116;2023-06-14T07:32:55;23.10;58.50
770;DHT22;368;48.698;9.116;2023-06-14T07:35:22;23.40;58.80
770;DHT22;368;48.698;9.116;2023-06-14T07:37:49;23.50;57.20
770;DHT22;368;48.698;9.116;2023-06-14T07:40:16;23.80;57.50
770;DHT22;368;48.698;9.116;2023-06-14T07:42:44;23.60;56.70
770;DHT22;368;48.698;9.116;2023-06-14T07:45:13;23.10;58.00
770;DHT22;368;48.698;9.116;2023-06-14T07:47:40;23.50;57.70
770;DHT22;368;48.698;9.116;2023-06-14T07:50:07;24.10;57.00
770;DHT22;368;48.698;9.116;2023-06-14T07:52:34;23.80;56.30
770;DHT22;368;48.698;9.116;2023-06-14T07:55:01;24.50;56.40
770;DHT22;368;48.698;9.116;2023-06-14T07:57:28;24.80;56.40
770;DHT22;368;48.698;9.116;2023-06-14T07:59:56;25.00;54.20
770;DHT22;368;48.698;9.116;2023-06-14T08:02:23;24.60;54.40
770;DHT22;368;48.698;9.116;2023-06-14T08:04:50;24.20;54.50
770;DHT22;368;48.698;9.116;2023-06-14T08:07:18;25.30;54.60
770;DHT22;368;48.698;9.116;2023-06-14T08:09:44;25.60;53.50
770;DHT22;368;48.698;9.116;2023-06-14T08:12:11;25.10;53.90
770;DHT22;368;48.698;9.116;2023-06-14T08:14:39;25.20;54.20
770;DHT22;368;48.698;9.116;2023-06-14T08:17:07;25.10;53.60
770;DHT22;368;48.698;9.116;2023-06-14T08:19:34;25.80;52.80
770;DHT22;368;48.698;9.116;2023-06-14T08:22:02;24.40;53.90
770;DHT22;368;48.698;9.116;2023-06-14T08:24:29;25.30;53.60
770;DHT22;368;48.698;9.116;2023-06-14T08:26:56;25.40;53.50
770;DHT22;368;48.698;9.116;2023-06-14T08:29:23;26.40;52.60
770;DHT22;368;48.698;9.116;2023-06-14T08:31:49;26.70;51.40
770;DHT22;368;48.698;9.116;2023-06-14T08:34:18;25.80;52.90
770;DHT22;368;48.698;9.116;2023-06-14T08:36:45;26.50;51.60
770;DHT22;368;48.698;9.116;2023-06-14T08:39:11;26.40;51.20
770;DHT22;368;48.698;9.116;2023-06-14T08:41:38;25.90;51.30
770;DHT22;368;48.698;9.116;2023-06-14T08:44:05;26.40;49.50
770;DHT22;368;48.698;9.116;2023-06-14T08:46:33;25.40;52.50
770;DHT22;368;48.698;9.116;2023-06-14T08:49:01;25.10;52.80
770;DHT22;368;48.698;9.116;2023-06-14T08:51:31;25.20;52.80
770;DHT22;368;48.698;9.116;2023-06-14T08:54:00;25.60;52.20
770;DHT22;368;48.698;9.116;2023-06-14T08:56:27;26.00;52.80
770;DHT22;368;48.698;9.116;2023-06-14T08:58:55;26.60;53.30
770;DHT22;368;48.698;9.116;2023-06-14T09:01:23;26.00;51.20
770;DHT22;368;48.698;9.116;2023-06-14T09:03:50;26.10;51.60
770;DHT22;368;48.698;9.116;2023-06-14T09:06:17;26.10;51.30
770;DHT22;368;48.698;9.116;2023-06-14T09:08:46;27.00;51.90
770;DHT22;368;48.698;9.116;2023-06-14T09:11:15;26.80;53.40
770;DHT22;368;48.698;9.116;2023-06-14T09:13:44;25.90;51.90
770;DHT22;368;48.698;9.116;2023-06-14T09:16:12;27.10;51.70
770;DHT22;368;48.698;9.116;2023-06-14T09:18:40;27.10;51.40
770;DHT22;368;48.698;9.116;2023-06-14T09:21:09;26.20;52.10
770;DHT22;368;48.698;9.116;2023-06-14T09:23:37;26.80;52.70
770;DHT22;368;48.698;9.116;2023-06-14T09:26:10;27.30;51.90
770;DHT22;368;48.698;9.116;2023-06-14T09:28:41;27.70;51.00
770;DHT22;368;48.698;9.116;2023-06-14T09:31:09;27.60;50.50
770;DHT22;368;48.698;9.116;2023-06-14T09:33:36;28.00;51.00
770;DHT22;368;48.698;9.116;2023-06-14T09:36:04;28.70;48.80
770;DHT22;368;48.698;9.116;2023-06-14T09:38:31;27.60;49.60
770;DHT22;368;48.698;9.116;2023-06-14T09:40:58;28.30;49.60
770;DHT22;368;48.698;9.116;2023-06-14T09:43:27;28.90;49.70
770;DHT22;368;48.698;9.116;2023-06-14T09:45:54;28.30;48.30
770;DHT22;368;48.698;9.116;2023-06-14T09:48:21;27.90;47.90
770;DHT22;368;48.698;9.116;2023-06-14T09:50:50;28.20;46.50
770;DHT22;368;48.698;9.116;2023-06-14T09:53:20;28.80;46.50
770;DHT22;368;48.698;9.116;2023-06-14T09:55:49;28.40;48.00
770;DHT22;368;48.698;9.116;2023-06-14T09:58:20;29.30;47.10
770;DHT22;368;48.698;9.116;2023-06-14T10:00:50;29.50;45.40
770;DHT22;368;48.698;9.116;2023-06-14T10:03:21;28.00;45.00
770;DHT22;368;48.698;9.116;2023-06-14T10:05:50;27.30;47.90
770;DHT22;368;48.698;9.116;2023-06-14T10:08:20;28.80;47.30
770;DHT22;368;48.698;9.116;2023-06-14T10:10:51;30.50;44.20
770;DHT22;368;48.698;9.116;2023-06-14T10:13:18;28.10;44.00
770;DHT22;368;48.698;9.116;2023-06-14T10:15:54;28.50;44.50
770;DHT22;368;48.698;9.116;2023-06-14T10:18:31;28.00;46.30
770;DHT22;368;48.698;9.116;2023-06-14T10:21:04;29.90;44.40
770;DHT22;368;48.698;9.116;2023-06-14T10:23:37;31.10;41.80
770;DHT22;368;48.698;9.116;2023-06-14T10:26:06;30.50;42.60
770;DHT22;368;48.698;9.116;2023-06-14T10:28:37;30.00;43.90
770;DHT22;368;48.698;9.116;2023-06-14T10:31:08;29.20;42.80
770;DHT22;368;48.698;9.116;2023-06-14T10:33:36;29.50;42.80
770;DHT22;368;48.698;9.116;2023-06-14T10:38:57;31.10;40.80
770;DHT22;368;48.698;9.116;2023-06-14T10:41:26;30.00;42.70
770;DHT22;368;48.698;9.116;2023-06-14T10:46:58;30.20;42.20
770;DHT22;368;48.698;9.116;2023-06-14T10:49:37;31.30;42.50
770;DHT22;368;48.698;9.116;2023-06-14T10:52:08;31.00;40.60
770;DHT22;368;48.698;9.116;2023-06-14T10:54:37;32.30;39.90
770;DHT22;368;48.698;9.116;2023-06-14T10:57:06;31.40;40.60
770;DHT22;368;48.698;9.116;2023-06-14T10:59:33;30.70;40.80
770;DHT22;368;48.698;9.116;2023-06-14T11:02:17;28.70;42.40
770;DHT22;368;48.698;9.116;2023-06-14T11:04:47;29.20;42.00
770;DHT22;368;48.698;9.116;2023-06-14T11:07:31;29.40;40.70
770;DHT22;368;48.698;9.116;2023-06-14T11:10:10;29.00;42.40
770;DHT22;368;48.698;9.116;2023-06-14T11:12:41;29.20;42.20
770;DHT22;368;48.698;9.116;2023-06-14T11:15:08;29.10;41.50
770;DHT22;368;48.698;9.116;2023-06-14T11:17:36;30.10;41.20
770;DHT22;368;48.698;9.116;2023-06-14T11:20:09;32.00;42.00
770;DHT22;368;48.698;9.116;2023-06-14T11:22:41;30.10;40.60
770;DHT22;368;48.698;9.116;2023-06-14T11:25:09;29.80;40.40
770;DHT22;368;48.698;9.116;2023-06-14T11:27:36;30.90;39.70
770;DHT22;368;48.698;9.116;2023-06-14T11:30:06;30.20;40.80
770;DHT22;368;48.698;9.116;2023-06-14T11:32:33;31.30;39.20
770;DHT22;368;48.698;9.116;2023-06-14T11:35:02;31.60;38.20
770;DHT22;368;48.698;9.116;2023-06-14T11:37:30;30.80;39.70
770;DHT22;368;48.698;9.116;2023-06-14T11:39:58;30.20;40.70
770;DHT22;368;48.698;9.116;2023-06-14T11:42:26;31.20;41.50
770;DHT22;368;48.698;9.116;2023-06-14T11:44:54;31.90;39.70
770;DHT22;368;48.698;9.116;2023-06-14T11:47:21;30.70;39.70
770;DHT22;368;48.698;9.116;2023-06-14T11:49:48;28.30;42.20
770;DHT22;368;48.698;9.116;2023-06-14T11:52:17;27.20;44.60
770;DHT22;368;48.698;9.116;2023-06-14T11:54:45;27.10;44.60
770;DHT22;368;48.698;9.116;2023-06-14T11:57:14;26.80;45.50
770;DHT22;368;48.698;9.116;2023-06-14T11:59:41;25.20;46.30
770;DHT22;368;48.698;9.116;2023-06-14T12:02:09;25.20;47.40
770;DHT22;368;48.698;9.116;2023-06-14T12:04:36;26.40;45.70
770;DHT22;368;48.698;9.116;2023-06-14T12:07:10;27.20;44.50
770;DHT22;368;48.698;9.116;2023-06-14T12:09:39;27.60;42.40
770;DHT22;368;48.698;9.116;2023-06-14T12:12:07;29.80;42.80
770;DHT22;368;48.698;9.116;2023-06-14T12:14:34;30.20;41.60
770;DHT22;368;48.698;9.116;2023-06-14T12:17:05;30.40;41.00
770;DHT22;368;48.698;9.116;2023-06-14T12:19:32;30.10;41.10
770;DHT22;368;48.698;9.116;2023-06-14T12:21:59;29.90;41.20
770;DHT22;368;48.698;9.116;2023-06-14T12:24:30;31.20;39.00
770;DHT22;368;48.698;9.116;2023-06-14T12:27:00;31.80;37.80
770;DHT22;368;48.698;9.116;2023-06-14T12:29:28;31.20;37.50
770;DHT22;368;48.698;9.116;2023-06-14T12:31:55;32.10;36.60
770;DHT22;368;48.698;9.116;2023-06-14T12:34:22;31.40;36.70
770;DHT22;368;48.698;9.116;2023-06-14T12:36:50;30.90;36.60
770;DHT22;368;48.698;9.116;2023-06-14T12:39:17;30.30;39.20
770;DHT22;368;48.698;9.116;2023-06-14T12:41:44;29.50;41.30
770;DHT22;368;48.698;9.116;2023-06-14T12:44:12;30.50;40.00
770;DHT22;368;48.698;9.116;2023-06-14T12:46:39;32.10;38.60
770;DHT22;368;48.698;9.116;2023-06-14T12:49:08;31.00;38.90
770;DHT22;368;48.698;9.116;2023-06-14T12:51:35;29.70;38.90
770;DHT22;368;48.698;9.116;2023-06-14T12:54:02;30.40;39.20
770;DHT22;368;48.698;9.116;2023-06-14T12:56:30;30.70;37.50
770;DHT22;368;48.698;9.116;2023-06-14T12:58:56;30.90;38.30
770;DHT22;368;48.698;9.116;2023-06-14T13:01:24;32.20;36.30
770;DHT22;368;48.698;9.116;2023-06-14T13:03:51;32.00;37.10
770;DHT22;368;48.698;9.116;2023-06-14T13:06:20;31.60;38.00
770;DHT22;368;48.698;9.116;2023-06-14T13:08:47;31.70;38.00
770;DHT22;368;48.698;9.116;2023-06-14T13:11:14;30.90;38.40
770;DHT22;368;48.698;9.116;2023-06-14T13:13:41;31.70;37.60
770;DHT22;368;48.698;9.116;2023-06-14T13:16:08;32.90;36.80
770;DHT22;368;48.698;9.116;2023-06-14T13:18:37;33.00;36.50
770;DHT22;368;48.698;9.116;2023-06-14T13:21:04;31.10;36.50
770;DHT22;368;48.698;9.116;2023-06-14T13:23:31;29.40;39.70
770;DHT22;368;48.698;9.116;2023-06-14T13:25:58;29.70;40.00
770;DHT22;368;48.698;9.116;2023-06-14T13:28:25;29.50;39.40
770;DHT22;368;48.698;9.116;2023-06-14T13:30:51;29.10;41.10
770;DHT22;368;48.698;9.116;2023-06-14T13:33:18;30.10;39.20
770;DHT22;368;48.698;9.116;2023-06-14T13:35:46;29.90;39.40
770;DHT22;368;48.698;9.116;2023-06-14T13:38:14;28.60;40.60
770;DHT22;368;48.698;9.116;2023-06-14T13:40:41;28.50;41.80
770;DHT22;368;48.698;9.116;2023-06-14T13:43:08;29.60;40.90
770;DHT22;368;48.698;9.116;2023-06-14T13:45:35;30.80;38.60
770;DHT22;368;48.698;9.116;2023-06-14T13:48:02;30.10;39.10
770;DHT22;368;48.698;9.116;2023-06-14T13:50:29;29.50;39.40
770;DHT22;368;48.698;9.116;2023-06-14T13:52:57;29.70;38.40
770;DHT22;368;48.698;9.116;2023-06-14T13:55:24;29.90;38.60
770;DHT22;368;48.698;9.116;2023-06-14T13:57:51;29.90;38.90
770;DHT22;368;48.698;9.116;2023-06-14T14:00:18;29.90;39.10
770;DHT22;368;48.698;9.116;2023-06-14T14:02:45;28.00;42.00
770;DHT22;368;48.698;9.116;2023-06-14T14:05:12;28.30;41.90
770;DHT22;368;48.698;9.116;2023-06-14T14:07:39;27.10;43.00
770;DHT22;368;48.698;9.116;2023-06-14T14:10:08;26.60;44.10
770;DHT22;368;48.698;9.116;2023-06-14T14:12:35;27.60;43.70
770;DHT22;368;48.698;9.116;2023-06-14T14:15:05;27.80;42.20
770;DHT22;368;48.698;9.116;2023-06-14T14:17:33;27.60;41.60
770;DHT22;368;48.698;9.116;2023-06-14T14:20:00;28.20;40.90
770;DHT22;368;48.698;9.116;2023-06-14T14:22:26;27.30;42.30
770;DHT22;368;48.698;9.116;2023-06-14T14:24:53;27.50;42.70
770;DHT22;368;48.698;9.116;2023-06-14T14:27:21;27.40;41.50
770;DHT22;368;48.698;9.116;2023-06-14T14:29:48;28.60;40.60
770;DHT22;368;48.698;9.116;2023-06-14T14:32:15;28.00;41.60
770;DHT22;368;48.698;9.116;2023-06-14T14:34:41;26.90;42.60
770;DHT22;368;48.698;9.116;2023-06-14T14:37:08;27.30;42.30
770;DHT22;368;48.698;9.116;2023-06-14T14:39:37;26.40;43.60
770;DHT22;368;48.698;9.116;2023-06-14T14:42:04;26.50;43.60
770;DHT22;368;48.698;9.116;2023-06-14T14:44:32;26.30;44.50
770;DHT22;368;48.698;9.116;2023-06-14T14:46:59;25.90;43.90
770;DHT22;368;48.698;9.116;2023-06-14T14:49:26;26.70;43.40
770;DHT22;368;48.698;9.116;2023-06-14T14:51:52;27.30;42.50
770;DHT22;368;48.698;9.116;2023-06-14T14:54:19;27.80;41.50
770;DHT22;368;48.698;9.116;2023-06-14T14:56:46;27.10;42.40
770;DHT22;368;48.698;9.116;2023-06-14T14:59:13;27.50;43.00
770;DHT22;368;48.698;9.116;2023-06-14T15:01:41;26.50;44.50
770;DHT22;368;48.698;9.116;2023-06-14T15:04:08;25.90;44.80
770;DHT22;368;48.698;9.116;2023-06-14T15:06:34;26.20;45.40
770;DHT22;368;48.698;9.116;2023-06-14T15:09:02;26.40;46.60
770;DHT22;368;48.698;9.116;2023-06-14T15:11:29;26.40;47.10
770;DHT22;368;48.698;9.116;2023-06-14T15:13:55;26.30;45.40
770;DHT22;368;48.698;9.116;2023-06-14T15:16:22;26.20;46.10
770;DHT22;368;48.698;9.116;2023-06-14T15:18:50;26.10;46.40
770;DHT22;368;48.698;9.116;2023-06-14T15:21:17;26.00;45.50
770;DHT22;368;48.698;9.116;2023-06-14T15:23:45;26.20;46.10
770;DHT22;368;48.698;9.116;2023-06-14T15:26:11;25.50;45.60
770;DHT22;368;48.698;9.116;2023-06-14T15:28:38;24.60;46.70
770;DHT22;368;48.698;9.116;2023-06-14T15:31:05;24.70;47.90
770;DHT22;368;48.698;9.116;2023-06-14T15:33:33;24.70;46.80
770;DHT22;368;48.698;9.116;2023-06-14T15:36:02;24.70;48.00
770;DHT22;368;48.698;9.116;2023-06-14T15:38:30;25.30;47.50
770;DHT22;368;48.698;9.116;2023-06-14T15:40:57;25.30;46.50
770;DHT22;368;48.698;9.116;2023-06-14T15:43:24;25.00;47.60
770;DHT22;368;48.698;9.116;2023-06-14T15:45:51;24.90;47.00
770;DHT22;368;48.698;9.116;2023-06-14T15:48:18;24.40;46.90
770;DHT22;368;48.698;9.116;2023-06-14T15:50:45;24.90;46.60
770;DHT22;368;48.698;9.116;2023-06-14T15:53:13;24.70;46.80
770;DHT22;368;48.698;9.116;2023-06-14T15:55:41;24.30;48.20
770;DHT22;368;48.698;9.116;2023-06-14T15:58:07;24.10;48.40
770;DHT22;368;48.698;9.116;2023-06-14T16:00:34;24.30;48.30
770;DHT22;368;48.698;9.116;2023-06-14T16:03:01;24.10;48.70
770;DHT22;368;48.698;9.116;2023-06-14T16:05:28;24.40;49.50
770;DHT22;368;48.698;9.116;2023-06-14T16:07:55;24.10;48.20
770;DHT22;368;48.698;9.116;2023-06-14T16:10:23;24.00;48.40
770;DHT22;368;48.698;9.116;2023-06-14T16:12:51;23.90;48.70
770;DHT22;368;48.698;9.116;2023-06-14T16:15:18;24.30;48.50
770;DHT22;368;48.698;9.116;2023-06-14T16:17:45;24.10;47.80
770;DHT22;368;48.698;9.116;2023-06-14T16:20:12;23.80;48.40
770;DHT22;368;48.698;9.116;2023-06-14T16:22:38;23.50;49.20
770;DHT22;368;48.698;9.116;2023-06-14T16:25:06;23.60;48.80
770;DHT22;368;48.698;9.116;2023-06-14T16:27:34;23.70;49.40
770;DHT22;368;48.698;9.116;2023-06-14T16:30:01;23.70;49.20
770;DHT22;368;48.698;9.116;2023-06-14T16:32:28;24.00;49.60
770;DHT22;368;48.698;9.116;2023-06-14T16:34:54;23.90;49.90
770;DHT22;368;48.698;9.116;2023-06-14T16:37:21;23.90;49.40
770;DHT22;368;48.698;9.116;2023-06-14T16:39:48;24.10;48.70
770;DHT22;368;48.698;9.116;2023-06-14T16:42:15;23.70;49.10
770;DHT22;368;48.698;9.116;2023-06-14T16:44:43;23.40;49.90